Overbrook, Oklahoma
Current Conditions -  °F | °C
As of 5:35 AM on Thursday 27 Nov 2014 (Local Time) from K1F0 Reporting Station
Clear Clear  
Wind Chill: 31°   Ceiling: Unl
Heat Index: 36°   Visibility: 10mi
Dew Point: 27°   Wind: 6mph
Humidity: 70%   Direction: 40°NE
Pressure: 30.49"   Gusts: NA
Location:  34.07°N, 97.14°W
Report Text: K1F0 271135Z AUTO 04005KT 10SM CLR 02/M03 A3049 RMK AO2
Loading
Personal Weather Stations






























Interactive Weather Map New forecast layout! Learn more

10-Day Weather Forecast

Advertisements
Track Severe Weather on mobile